Time;durP1;ratioP1;P1;durP2;ratioP2;P2;SDS_P1;SDS_P2;PMS_P1;PMS_P2;Temp;Humidity;BMP_temperature;BMP_pressure;BME280_temperature;BME280_humidity;BME280_pressure;Samples;Min_cycle;Max_cycle;Signal;HPM_P1;HPM_P2
2023/05/01 00:01:19;;;;;;;0.97;0.97;;;8.20;99.90;;;;;;5055425;28;20218;-86
2023/05/01 00:03:45;;;;;;;2.33;1.97;;;8.20;99.90;;;;;;5056287;28;21304;-86
2023/05/01 00:06:11;;;;;;;1.50;1.37;;;8.10;99.90;;;;;;5047356;28;20197;-90
2023/05/01 00:08:37;;;;;;;3.37;1.60;;;8.10;99.90;;;;;;5057132;28;20720;-86
2023/05/01 00:11:03;;;;;;;1.40;1.30;;;8.00;99.90;;;;;;5053917;28;20317;-87
2023/05/01 00:13:29;;;;;;;2.47;2.37;;;8.10;99.90;;;;;;5055727;28;20683;-86
2023/05/01 00:15:55;;;;;;;1.40;1.30;;;8.10;99.90;;;;;;5054791;28;20287;-87
2023/05/01 00:18:21;;;;;;;4.10;2.03;;;8.10;99.90;;;;;;5055709;27;20193;-88
2023/05/01 00:20:47;;;;;;;4.20;1.93;;;8.10;99.90;;;;;;5038658;28;20201;-87
2023/05/01 00:23:12;;;;;;;2.17;1.97;;;8.00;99.90;;;;;;5046759;28;20237;-85
2023/05/01 00:25:38;;;;;;;5.10;1.67;;;8.00;99.90;;;;;;5057297;28;20300;-86
2023/05/01 00:28:05;;;;;;;5.97;1.40;;;8.00;99.90;;;;;;5057173;27;20328;-89
2023/05/01 00:30:34;;;;;;;2.07;1.93;;;8.10;99.90;;;;;;5046796;28;20236;-87
2023/05/01 00:33:00;;;;;;;2.93;2.47;;;8.00;99.90;;;;;;5056280;28;20539;-86
2023/05/01 00:35:26;;;;;;;8.90;2.37;;;8.00;99.90;;;;;;5055160;27;20222;-81
2023/05/01 00:37:52;;;;;;;3.10;1.93;;;8.00;99.90;;;;;;5049348;28;20286;-83
2023/05/01 00:40:18;;;;;;;2.77;1.77;;;8.00;99.90;;;;;;5049817;28;20218;-82
2023/05/01 00:42:44;;;;;;;4.10;1.40;;;8.00;99.90;;;;;;5032662;28;20572;-83
2023/05/01 00:45:09;;;;;;;2.97;2.17;;;8.00;99.90;;;;;;5033040;28;20182;-84
2023/05/01 00:47:35;;;;;;;2.70;2.50;;;8.00;99.90;;;;;;5033444;28;20544;-82
2023/05/01 00:50:02;;;;;;;1.10;1.00;;;7.90;99.90;;;;;;5050250;28;20229;-82
2023/05/01 00:52:28;;;;;;;2.83;2.63;;;7.80;99.90;;;;;;5049087;28;20222;-85
2023/05/01 00:54:54;;;;;;;4.17;3.70;;;7.70;99.90;;;;;;5047822;28;20232;-82
2023/05/01 00:57:21;;;;;;;2.60;1.70;;;7.70;99.90;;;;;;5047334;28;20763;-84
2023/05/01 00:59:47;;;;;;;1.90;1.80;;;7.80;99.90;;;;;;5048899;28;20189;-82
2023/05/01 01:02:13;;;;;;;1.53;1.43;;;7.90;99.90;;;;;;5048967;28;20275;-82
2023/05/01 01:04:44;;;;;;;5.53;2.73;;;7.90;99.90;;;;;;5047827;28;20225;-82
2023/05/01 01:07:40;;;;;;;15.80;3.37;;;7.90;99.90;;;;;;5049859;28;20271;-82
2023/05/01 01:10:17;;;;;;;2.73;2.53;;;7.90;99.90;;;;;;5049862;28;20890;-82
2023/05/01 01:12:57;;;;;;;5.77;3.00;;;7.90;99.90;;;;;;5050350;28;20244;-83
2023/05/01 01:15:33;;;;;;;2.47;1.47;;;7.80;99.90;;;;;;5049210;28;20229;-82
2023/05/01 01:18:08;;;;;;;2.23;2.13;;;7.90;99.90;;;;;;5049392;28;20170;-82
2023/05/01 01:20:53;;;;;;;6.13;2.33;;;7.80;99.90;;;;;;5047863;28;20252;-82
2023/05/01 01:23:40;;;;;;;2.40;1.50;;;7.80;99.90;;;;;;5048801;28;20213;-82
2023/05/01 01:26:47;;;;;;;1.93;1.83;;;7.80;99.90;;;;;;5048814;28;20241;-83
2023/05/01 01:29:15;;;;;;;1.20;1.17;;;7.80;99.90;;;;;;5048796;28;20293;-83
2023/05/01 01:32:02;;;;;;;2.93;2.10;;;7.80;99.90;;;;;;5048726;28;20268;-81
2023/05/01 01:34:43;;;;;;;2.63;1.23;;;7.80;99.90;;;;;;5048960;28;20271;-82
2023/05/01 01:37:19;;;;;;;1.97;1.87;;;7.80;99.90;;;;;;5049966;28;20305;-83
2023/05/01 01:40:13;;;;;;;2.93;1.73;;;7.80;99.90;;;;;;5048314;28;20221;-81
2023/05/01 01:42:48;;;;;;;2.57;2.37;;;7.80;99.90;;;;;;5049321;28;20270;-84
2023/05/01 01:45:22;;;;;;;3.17;2.07;;;7.80;99.90;;;;;;5049600;28;20181;-83
2023/05/01 01:47:50;;;;;;;2.63;1.87;;;7.70;99.90;;;;;;5050055;28;20295;-84
2023/05/01 01:50:19;;;;;;;7.50;1.57;;;7.70;99.90;;;;;;5050734;28;20226;-83
2023/05/01 01:52:48;;;;;;;3.23;2.67;;;7.60;99.90;;;;;;5053857;28;20271;-84
2023/05/01 01:55:16;;;;;;;2.10;1.90;;;7.50;99.90;;;;;;5052920;28;20230;-83
2023/05/01 01:57:44;;;;;;;2.43;1.50;;;7.50;99.90;;;;;;5053659;28;20213;-83
2023/05/01 02:00:11;;;;;;;1.87;1.73;;;7.50;99.90;;;;;;5052078;28;20678;-82
2023/05/01 02:02:41;;;;;;;3.97;2.87;;;7.50;99.90;;;;;;5052988;28;20194;-84
2023/05/01 02:05:08;;;;;;;2.70;1.83;;;7.50;99.90;;;;;;5052229;28;20225;-82
2023/05/01 02:07:36;;;;;;;2.23;2.00;;;7.50;99.90;;;;;;5035669;28;20247;-81
2023/05/01 02:10:04;;;;;;;2.73;1.93;;;7.40;99.90;;;;;;5053403;28;20229;-81
2023/05/01 02:12:31;;;;;;;2.10;1.60;;;7.40;99.90;;;;;;5035736;28;20213;-82
2023/05/01 02:14:58;;;;;;;2.47;2.27;;;7.40;99.90;;;;;;5052620;28;20731;-82
2023/05/01 02:17:26;;;;;;;1.43;1.30;;;7.40;99.90;;;;;;5036034;28;20232;-83
2023/05/01 02:19:54;;;;;;;2.10;1.60;;;7.50;99.90;;;;;;5035912;28;20225;-83
2023/05/01 02:22:21;;;;;;;2.00;1.77;;;7.50;99.90;;;;;;5052467;28;20218;-83
2023/05/01 02:24:48;;;;;;;2.23;2.07;;;7.50;99.90;;;;;;5052013;28;20214;-83
2023/05/01 02:27:22;;;;;;;3.40;1.83;;;7.50;99.90;;;;;;5051887;28;20208;-84
2023/05/01 02:29:51;;;;;;;11.70;2.60;;;7.60;99.90;;;;;;5054025;28;20247;-83
2023/05/01 02:32:16;;;;;;;3.87;2.80;;;7.60;99.90;;;;;;5053127;28;20272;-83
2023/05/01 02:34:42;;;;;;;1.63;1.53;;;7.60;99.90;;;;;;5052019;28;20218;-84
2023/05/01 02:37:10;;;;;;;6.03;2.10;;;7.60;99.90;;;;;;5052907;28;20294;-83
2023/05/01 02:39:37;;;;;;;2.33;1.43;;;7.60;99.90;;;;;;5051833;28;20220;-84
2023/05/01 02:42:05;;;;;;;2.03;1.93;;;7.60;99.90;;;;;;5035575;28;20209;-83
2023/05/01 02:44:50;;;;;;;8.93;3.03;;;7.60;99.90;;;;;;5068582;28;20726;-82
2023/05/01 02:47:20;;;;;;;2.60;2.40;;;7.50;99.90;;;;;;5052862;28;20218;-82
2023/05/01 02:49:48;;;;;;;10.10;2.43;;;7.40;99.90;;;;;;5052610;28;20766;-81
2023/05/01 02:52:18;;;;;;;1.30;1.20;;;7.40;99.90;;;;;;5051763;28;20237;-82
2023/05/01 02:54:44;;;;;;;1.23;1.13;;;7.40;99.90;;;;;;5052699;28;20222;-82
2023/05/01 02:57:11;;;;;;;1.67;1.57;;;7.30;99.90;;;;;;5034581;28;20636;-83
2023/05/01 02:59:36;;;;;;;2.93;1.87;;;7.30;99.90;;;;;;5053161;28;20532;-82
2023/05/01 03:02:02;;;;;;;1.67;1.57;;;7.20;99.90;;;;;;5051130;28;20210;-84
2023/05/01 03:04:28;;;;;;;2.40;2.07;;;7.20;99.90;;;;;;5034743;28;20305;-84
2023/05/01 03:06:54;;;;;;;2.23;2.03;;;7.20;99.90;;;;;;5035004;28;20667;-82
2023/05/01 03:09:21;;;;;;;1.10;1.10;;;7.10;99.90;;;;;;5052370;28;20202;-83
2023/05/01 03:11:47;;;;;;;1.33;1.30;;;7.10;99.90;;;;;;5053156;28;20178;-83
2023/05/01 03:14:12;;;;;;;6.47;2.10;;;7.10;99.90;;;;;;5034417;28;20218;-83
2023/05/01 03:16:39;;;;;;;2.80;2.57;;;7.00;99.90;;;;;;5050881;28;20317;-84
2023/05/01 03:19:06;;;;;;;1.30;1.30;;;7.00;99.90;;;;;;5052042;28;20218;-82
2023/05/01 03:21:32;;;;;;;2.13;1.93;;;6.90;99.90;;;;;;5051962;28;20230;-82
2023/05/01 03:23:58;;;;;;;5.07;1.97;;;6.90;99.90;;;;;;5052449;28;20206;-84
2023/05/01 03:26:24;;;;;;;2.23;1.83;;;6.80;99.90;;;;;;5052249;28;20217;-83
2023/05/01 03:28:50;;;;;;;2.97;2.70;;;6.80;99.90;;;;;;5051024;28;20228;-83
2023/05/01 03:31:16;;;;;;;2.93;1.57;;;6.80;99.90;;;;;;5034066;28;20229;-83
2023/05/01 03:33:42;;;;;;;1.50;1.40;;;6.70;99.90;;;;;;5051888;28;20234;-84
2023/05/01 03:36:10;;;;;;;1.33;0.90;;;6.70;99.90;;;;;;5050857;28;20241;-82
2023/05/01 03:38:36;;;;;;;4.13;2.00;;;6.60;99.90;;;;;;5068292;28;20580;-82
2023/05/01 03:41:04;;;;;;;1.63;1.53;;;6.60;99.90;;;;;;5051851;28;20308;-82
2023/05/01 03:43:30;;;;;;;5.80;3.10;;;6.70;99.90;;;;;;5049267;28;20218;-82
2023/05/01 03:45:57;;;;;;;1.67;1.57;;;6.70;99.90;;;;;;5049643;28;20218;-83
2023/05/01 03:48:23;;;;;;;2.03;1.93;;;6.70;99.90;;;;;;5050502;28;20185;-84
2023/05/01 03:50:50;;;;;;;1.40;1.37;;;6.70;99.90;;;;;;5051787;28;20202;-83
2023/05/01 03:53:16;;;;;;;2.03;1.80;;;6.80;99.90;;;;;;5050056;28;20309;-83
2023/05/01 03:55:42;;;;;;;4.93;1.67;;;6.70;99.90;;;;;;5049850;28;20695;-83
2023/05/01 03:58:09;;;;;;;1.67;1.57;;;6.80;99.90;;;;;;5049758;28;20218;-82
2023/05/01 04:00:36;;;;;;;2.47;1.90;;;6.70;99.90;;;;;;5051421;28;20578;-83
2023/05/01 04:03:05;;;;;;;7.10;2.50;;;6.70;99.90;;;;;;5050638;28;20178;-83
2023/05/01 04:05:31;;;;;;;1.67;1.57;;;6.70;99.90;;;;;;5050938;28;20213;-83
2023/05/01 04:07:57;;;;;;;2.23;2.10;;;6.70;99.90;;;;;;5049296;28;20228;-82
2023/05/01 04:10:22;;;;;;;1.30;1.30;;;6.70;99.90;;;;;;5034174;28;20232;-82
2023/05/01 04:12:48;;;;;;;2.87;1.63;;;6.60;99.90;;;;;;5050116;28;20451;-82
2023/05/01 04:15:15;;;;;;;2.40;2.20;;;6.60;99.90;;;;;;5048723;28;20722;-81
2023/05/01 04:17:44;;;;;;;0.73;0.73;;;6.60;99.90;;;;;;5050775;28;20179;-82
2023/05/01 04:20:11;;;;;;;1.87;1.30;;;6.50;99.90;;;;;;5050274;28;20222;-82
2023/05/01 04:22:37;;;;;;;3.57;2.73;;;6.60;99.90;;;;;;5032384;28;20224;-83
2023/05/01 04:25:03;;;;;;;4.03;1.60;;;6.60;99.90;;;;;;5048923;28;20218;-83
2023/05/01 04:27:30;;;;;;;1.80;1.70;;;6.50;99.90;;;;;;5049315;28;20237;-83
2023/05/01 04:29:56;;;;;;;0.90;0.90;;;6.50;99.90;;;;;;5033017;28;20217;-84
2023/05/01 04:32:22;;;;;;;1.17;1.10;;;6.50;99.90;;;;;;5048943;28;20240;-84
2023/05/01 04:34:48;;;;;;;0.77;0.73;;;6.60;99.90;;;;;;5050572;28;20709;-83
2023/05/01 04:37:16;;;;;;;2.73;2.23;;;6.60;99.90;;;;;;5032950;28;20753;-83
2023/05/01 04:39:42;;;;;;;2.03;1.87;;;6.60;99.90;;;;;;5049559;28;20313;-83
2023/05/01 04:42:08;;;;;;;3.10;1.70;;;6.70;99.90;;;;;;5050657;28;20592;-83
2023/05/01 04:44:35;;;;;;;1.87;1.77;;;6.80;99.90;;;;;;5049750;28;20186;-82
2023/05/01 04:47:03;;;;;;;2.47;2.00;;;6.80;99.90;;;;;;5032935;28;20218;-83
2023/05/01 04:49:28;;;;;;;1.87;1.50;;;7.00;99.90;;;;;;5049186;28;20283;-80
2023/05/01 04:51:54;;;;;;;3.17;2.27;;;7.10;99.90;;;;;;5049209;28;20217;-84
2023/05/01 04:54:20;;;;;;;1.50;1.40;;;7.20;99.90;;;;;;5050402;28;20615;-85
2023/05/01 04:56:45;;;;;;;1.37;1.03;;;7.30;99.90;;;;;;5050192;28;20282;-82
2023/05/01 04:59:11;;;;;;;2.83;2.00;;;7.50;99.90;;;;;;5050409;28;20284;-82
2023/05/01 05:01:37;;;;;;;9.60;2.40;;;7.70;99.90;;;;;;5049173;28;20675;-82
2023/05/01 05:04:03;;;;;;;2.87;2.77;;;7.90;99.90;;;;;;5048973;28;20781;-81
2023/05/01 05:06:28;;;;;;;2.13;2.03;;;7.90;99.90;;;;;;5048866;28;20249;-82
2023/05/01 05:08:54;;;;;;;5.07;1.80;;;8.00;99.90;;;;;;5049596;28;20543;-83
2023/05/01 05:11:20;;;;;;;2.20;2.00;;;8.10;99.90;;;;;;5048257;28;20230;-82
2023/05/01 05:13:46;;;;;;;3.30;3.00;;;8.10;99.90;;;;;;5048839;28;20218;-82
2023/05/01 05:16:13;;;;;;;2.00;1.80;;;8.20;99.90;;;;;;5049609;28;20252;-82
2023/05/01 05:18:39;;;;;;;2.93;2.07;;;8.30;99.90;;;;;;5048678;28;20242;-83
2023/05/01 05:21:05;;;;;;;5.17;2.67;;;8.40;99.90;;;;;;5049068;28;20197;-80
2023/05/01 05:23:31;;;;;;;3.23;2.57;;;8.70;99.90;;;;;;5050538;28;20643;-82
2023/05/01 05:26:00;;;;;;;2.97;2.43;;;9.10;99.90;;;;;;5032417;28;20245;-83
2023/05/01 05:28:29;;;;;;;5.33;1.63;;;9.60;99.90;;;;;;5049812;28;20214;-81
2023/05/01 05:30:56;;;;;;;3.37;3.07;;;10.20;99.90;;;;;;5048569;28;20222;-83
2023/05/01 05:33:23;;;;;;;4.27;3.33;;;10.70;99.90;;;;;;5048575;28;20474;-83
2023/05/01 05:35:51;;;;;;;6.33;2.93;;;10.90;99.90;;;;;;5032999;28;20243;-83
2023/05/01 05:38:17;;;;;;;3.53;2.90;;;11.10;99.90;;;;;;5048563;28;20241;-84
2023/05/01 05:40:42;;;;;;;4.37;3.10;;;11.00;99.90;;;;;;5048462;28;20249;-82
2023/05/01 05:43:09;;;;;;;5.93;2.70;;;10.90;99.90;;;;;;5048776;28;20632;-82
2023/05/01 05:45:35;;;;;;;2.27;2.00;;;11.10;99.90;;;;;;5031833;28;20267;-83
2023/05/01 05:48:02;;;;;;;3.87;3.57;;;11.80;99.90;;;;;;5050216;28;20240;-81
2023/05/01 05:50:28;;;;;;;2.67;1.97;;;12.30;99.90;;;;;;5047996;28;20312;-82
2023/05/01 05:52:55;;;;;;;5.10;2.97;;;12.60;99.90;;;;;;5049492;28;20217;-85
2023/05/01 05:55:21;;;;;;;2.40;2.20;;;13.10;99.90;;;;;;5048940;28;20445;-83
2023/05/01 05:57:46;;;;;;;8.17;3.43;;;13.70;99.90;;;;;;5048444;28;20294;-83
2023/05/01 06:00:13;;;;;;;2.73;2.53;;;15.30;99.90;;;;;;5046903;28;20280;-84
2023/05/01 06:02:39;;;;;;;3.03;2.03;;;16.10;99.90;;;;;;5047738;28;20178;-82
2023/05/01 06:05:06;;;;;;;3.90;2.60;;;16.30;99.90;;;;;;5048926;28;20228;-82
2023/05/01 06:07:32;;;;;;;5.13;2.30;;;15.90;99.90;;;;;;5049201;28;20611;-83
2023/05/01 06:10:03;;;;;;;2.83;1.80;;;16.00;99.90;;;;;;5049069;28;20280;-83
2023/05/01 06:12:29;;;;;;;2.77;2.17;;;16.30;99.90;;;;;;5032499;28;20690;-83
2023/05/01 06:14:55;;;;;;;1.80;1.70;;;16.20;99.90;;;;;;5048711;28;20178;-84
2023/05/01 06:17:21;;;;;;;4.90;2.40;;;16.00;99.90;;;;;;5048288;28;20225;-82
2023/05/01 06:19:47;;;;;;;2.23;1.57;;;16.10;99.90;;;;;;5048487;28;20374;-83
2023/05/01 06:22:12;;;;;;;3.37;1.90;;;15.80;99.90;;;;;;5048612;28;20667;-84
2023/05/01 06:24:38;;;;;;;2.40;2.30;;;15.60;99.90;;;;;;5047877;28;20225;-82
2023/05/01 06:27:05;;;;;;;2.77;2.53;;;16.10;99.90;;;;;;5049464;28;20194;-84
2023/05/01 06:29:31;;;;;;;4.30;2.73;;;16.50;99.90;;;;;;5048857;28;20675;-85
2023/05/01 06:31:56;;;;;;;3.20;2.53;;;16.00;99.90;;;;;;5046630;28;20222;-83
2023/05/01 06:34:22;;;;;;;2.63;2.40;;;15.20;99.90;;;;;;5046708;28;20210;-83
2023/05/01 06:36:48;;;;;;;10.57;2.77;;;15.50;99.90;;;;;;5052259;28;20610;-84
2023/05/01 06:39:13;;;;;;;2.47;2.27;;;16.00;99.90;;;;;;5052390;28;20646;-84
2023/05/01 06:41:39;;;;;;;2.60;2.17;;;16.30;99.90;;;;;;5033951;28;20209;-83
2023/05/01 06:44:05;;;;;;;12.40;2.97;;;16.50;99.90;;;;;;5033513;28;20301;-84
2023/05/01 06:46:31;;;;;;;2.23;1.80;;;16.40;99.90;;;;;;5051204;28;20245;-84
2023/05/01 06:48:56;;;;;;;2.90;2.13;;;17.00;99.90;;;;;;5049755;28;20222;-84
2023/05/01 06:51:22;;;;;;;2.77;2.10;;;18.60;99.90;;;;;;5049320;28;20212;-84
2023/05/01 06:53:51;;;;;;;3.23;2.80;;;17.80;99.90;;;;;;5050082;28;20670;-83
2023/05/01 06:56:16;;;;;;;2.73;2.17;;;17.50;99.90;;;;;;5065888;28;20213;-84
2023/05/01 06:58:42;;;;;;;5.03;2.63;;;17.60;99.90;;;;;;5032739;28;20578;-84
2023/05/01 07:01:08;;;;;;;7.77;3.20;;;17.80;99.90;;;;;;5049550;28;20222;-84
2023/05/01 07:03:34;;;;;;;4.00;2.23;;;17.80;99.90;;;;;;5066431;28;20214;-84
2023/05/01 07:05:59;;;;;;;2.80;2.47;;;18.30;99.90;;;;;;5033106;28;20235;-84
2023/05/01 07:08:26;;;;;;;2.43;2.23;;;18.50;99.90;;;;;;5049243;28;20222;-83
2023/05/01 07:10:52;;;;;;;4.53;2.67;;;19.60;99.90;;;;;;5032660;28;20238;-84
2023/05/01 07:13:18;;;;;;;3.17;2.63;;;20.20;99.90;;;;;;5050034;28;20230;-83
2023/05/01 07:15:44;;;;;;;4.10;2.60;;;21.10;99.90;;;;;;5050128;28;20230;-83
2023/05/01 07:18:11;;;;;;;3.40;2.63;;;20.50;99.90;;;;;;5050936;28;20186;-84
2023/05/01 07:20:37;;;;;;;5.17;2.40;;;20.60;99.90;;;;;;5051693;28;20205;-85
2023/05/01 07:23:03;;;;;;;4.07;2.63;;;20.60;99.90;;;;;;5034292;28;20636;-85
2023/05/01 07:25:29;;;;;;;4.07;2.67;;;20.80;99.90;;;;;;5050886;28;20599;-84
2023/05/01 07:27:55;;;;;;;3.13;2.40;;;20.00;99.90;;;;;;5050915;28;20214;-85
2023/05/01 07:30:21;;;;;;;4.33;2.60;;;19.30;99.90;;;;;;5033986;28;20267;-84
2023/05/01 07:32:47;;;;;;;4.97;2.30;;;19.90;99.90;;;;;;5050951;28;20182;-84
2023/05/01 07:35:12;;;;;;;4.97;3.20;;;19.60;99.90;;;;;;5050299;28;20224;-84
2023/05/01 07:37:38;;;;;;;4.77;2.10;;;20.40;99.90;;;;;;5048662;28;20601;-84
2023/05/01 07:40:04;;;;;;;3.37;2.07;;;21.40;99.90;;;;;;5032484;28;20272;-84
2023/05/01 07:42:30;;;;;;;5.37;2.80;;;21.10;99.90;;;;;;5048614;28;20225;-84
2023/05/01 07:44:56;;;;;;;4.13;2.10;;;21.80;99.90;;;;;;5049133;28;20182;-86
2023/05/01 07:47:22;;;;;;;3.13;2.67;;;23.30;99.90;;;;;;5047838;28;20221;-85
2023/05/01 07:49:48;;;;;;;5.13;2.93;;;22.70;99.90;;;;;;5064607;28;20272;-84
2023/05/01 07:52:14;;;;;;;4.90;2.40;;;21.70;99.90;;;;;;5031701;28;20226;-84
2023/05/01 07:54:40;;;;;;;4.33;2.83;;;22.10;99.90;;;;;;5031647;28;20221;-84
2023/05/01 07:57:06;;;;;;;4.20;2.47;;;22.20;99.90;;;;;;5031649;28;20178;-85
2023/05/01 07:59:32;;;;;;;3.73;2.33;;;21.90;99.90;;;;;;5048659;28;20627;-85
2023/05/01 08:01:58;;;;;;;5.70;2.67;;;22.90;99.90;;;;;;5049881;28;20297;-84
2023/05/01 08:04:24;;;;;;;3.43;2.73;;;24.20;99.90;;;;;;5049389;28;20698;-84
2023/05/01 08:06:50;;;;;;;3.63;2.50;;;25.40;99.90;;;;;;5049909;28;20225;-83
2023/05/01 08:09:16;;;;;;;3.45;2.88;;;25.20;99.90;;;;;;5066208;28;20569;-84
2023/05/01 08:11:42;;;;;;;4.70;2.60;;;24.30;99.90;;;;;;5051117;28;20328;-83
2023/05/01 08:14:09;;;;;;;3.47;3.08;;;24.80;99.90;;;;;;5032962;28;20256;-84
2023/05/01 08:16:35;;;;;;;4.80;2.88;;;26.20;99.90;;;;;;5048633;28;20641;-84
2023/05/01 08:19:00;;;;;;;3.60;2.67;;;27.00;99.90;;;;;;5049309;28;20217;-84
2023/05/01 08:21:26;;;;;;;3.67;2.88;;;27.30;99.90;;;;;;5049673;28;20646;-85
2023/05/01 08:23:54;;;;;;;5.47;2.28;;;26.30;99.90;;;;;;5050063;28;20768;-85
2023/05/01 08:26:20;;;;;;;3.25;2.35;;;27.20;99.90;;;;;;5032787;28;20658;-84
2023/05/01 08:28:47;;;;;;;3.80;3.42;;;26.60;99.90;;;;;;5049611;28;20224;-86
2023/05/01 08:31:13;;;;;;;4.57;2.75;;;27.10;99.90;;;;;;5050728;28;20222;-85
2023/05/01 08:33:43;;;;;;;5.03;2.20;;;25.60;99.90;;;;;;5032767;28;20609;-86
2023/05/01 08:36:10;;;;;;;3.92;1.80;;;25.50;99.90;;;;;;5048819;28;20597;-85
2023/05/01 08:38:36;;;;;;;5.80;2.80;;;25.90;99.90;;;;;;5049805;28;20185;-85
2023/05/01 08:41:02;;;;;;;4.18;2.30;;;26.60;99.90;;;;;;5050248;28;20221;-84
2023/05/01 08:43:34;;;;;;;4.30;2.17;;;26.80;99.90;;;;;;5032368;28;20374;-84
2023/05/01 08:46:01;;;;;;;5.30;2.25;;;27.30;99.90;;;;;;5048872;28;20701;-84
2023/05/01 08:48:28;;;;;;;2.40;1.83;;;27.70;99.90;;;;;;5032495;28;20345;-84
2023/05/01 08:50:59;;;;;;;3.80;2.30;;;27.30;99.90;;;;;;5033175;28;20214;-84
2023/05/01 08:53:25;;;;;;;2.20;1.98;;;26.90;99.90;;;;;;5050267;28;20222;-84
2023/05/01 08:55:52;;;;;;;3.92;2.10;;;28.00;99.90;;;;;;5049377;28;20217;-85
2023/05/01 08:58:19;;;;;;;2.53;2.33;;;28.30;99.90;;;;;;5051315;28;20694;-85
2023/05/01 09:00:46;;;;;;;2.75;2.30;;;26.90;99.90;;;;;;5048961;28;20276;-85
2023/05/01 09:03:15;;;;;;;2.42;1.85;;;26.80;99.90;;;;;;5048699;28;20181;-85
2023/05/01 09:05:41;;;;;;;4.28;1.63;;;26.20;99.90;;;;;;5050817;28;20547;-84
2023/05/01 09:08:07;;;;;;;2.92;1.73;;;26.20;99.90;;;;;;5048572;28;20218;-85
2023/05/01 09:10:37;;;;;;;2.53;1.70;;;26.10;99.90;;;;;;5049061;28;20230;-86
2023/05/01 09:13:05;;;;;;;2.78;2.30;;;26.20;99.90;;;;;;5058064;28;20226;-85
2023/05/01 09:15:32;;;;;;;2.67;1.98;;;26.70;99.90;;;;;;5048549;28;20654;-84
2023/05/01 09:18:00;;;;;;;3.42;2.10;;;27.10;99.90;;;;;;5049193;28;20182;-85
2023/05/01 09:20:27;;;;;;;2.40;2.20;;;26.70;99.90;;;;;;5048715;28;20221;-85
2023/05/01 09:22:56;;;;;;;7.95;2.45;;;26.40;99.90;;;;;;5032513;28;20218;-85
2023/05/01 09:25:22;;;;;;;2.88;1.98;;;25.70;99.90;;;;;;5049523;28;20214;-84
2023/05/01 09:27:48;;;;;;;5.55;2.13;;;25.30;99.90;;;;;;5031122;28;20339;-85
2023/05/01 09:30:33;;;;;;;2.67;1.98;;;25.30;99.90;;;;;;5047442;28;20225;-84
2023/05/01 09:33:07;;;;;;;2.60;1.90;;;25.00;99.90;;;;;;5049160;28;20534;-85
2023/05/01 09:35:53;;;;;;;1.85;1.45;;;24.70;99.90;;;;;;5048491;28;20539;-85
2023/05/01 09:38:24;;;;;;;1.45;1.35;;;25.00;99.90;;;;;;5047982;28;20698;-84
2023/05/01 09:40:52;;;;;;;1.67;1.58;;;24.90;99.90;;;;;;5046909;28;20222;-86
2023/05/01 09:43:28;;;;;;;3.00;1.67;;;24.80;99.90;;;;;;5046733;28;20214;-86
2023/05/01 09:46:10;;;;;;;4.22;1.92;;;23.60;99.90;;;;;;5047406;28;20634;-85
2023/05/01 09:48:36;;;;;;;3.10;1.95;;;23.70;99.90;;;;;;5048053;28;20224;-86
2023/05/01 09:51:26;;;;;;;3.33;1.90;;;23.90;99.90;;;;;;5048591;28;20343;-85
2023/05/01 09:53:53;;;;;;;4.90;1.90;;;24.20;99.90;;;;;;5044219;28;20213;-85
2023/05/01 09:56:22;;;;;;;2.67;1.60;;;25.00;99.90;;;;;;5048484;28;20225;-86
2023/05/01 09:58:53;;;;;;;5.50;2.50;;;25.20;99.90;;;;;;5048527;28;20263;-86
2023/05/01 10:01:40;;;;;;;1.52;1.35;;;25.80;99.90;;;;;;5048381;28;20691;-86
2023/05/01 10:04:08;;;;;;;3.20;1.90;;;26.40;99.90;;;;;;5049178;28;20214;-85
2023/05/01 10:06:35;;;;;;;3.95;1.77;;;26.50;99.90;;;;;;5031798;28;20229;-84
2023/05/01 10:09:02;;;;;;;5.38;1.92;;;26.50;99.90;;;;;;5048431;28;20271;-85
2023/05/01 10:11:28;;;;;;;3.97;2.53;;;26.40;99.90;;;;;;5049719;28;20221;-86
2023/05/01 10:14:10;;;;;;;2.42;1.50;;;25.50;99.90;;;;;;5035573;28;20224;-85
2023/05/01 10:16:37;;;;;;;4.78;2.10;;;25.60;99.90;;;;;;5051922;28;20909;-85
2023/05/01 10:19:04;;;;;;;3.83;2.13;;;25.50;99.90;;;;;;5035754;28;20303;-85
2023/05/01 10:21:34;;;;;;;2.28;2.08;;;25.50;99.90;;;;;;5052169;28;20214;-85
2023/05/01 10:24:04;;;;;;;4.45;2.40;;;25.10;99.90;;;;;;5052921;28;20178;-85
2023/05/01 10:26:35;;;;;;;5.35;2.50;;;25.40;99.90;;;;;;5053555;28;20194;-84
2023/05/01 10:29:01;;;;;;;5.93;2.95;;;24.50;99.90;;;;;;5052153;28;20295;-85
2023/05/01 10:31:28;;;;;;;5.38;2.15;;;23.70;99.90;;;;;;5051988;28;20226;-85
2023/05/01 10:33:55;;;;;;;3.10;2.00;;;23.40;99.90;;;;;;5051991;28;20209;-84
2023/05/01 10:36:25;;;;;;;2.85;1.85;;;22.40;99.90;;;;;;5035195;28;20269;-86
2023/05/01 10:38:51;;;;;;;2.38;1.73;;;21.20;99.90;;;;;;5052832;28;20270;-86
2023/05/01 10:41:55;;;;;;;1.67;1.30;;;20.30;99.90;;;;;;5051548;28;20692;-87
2023/05/01 10:44:23;;;;;;;1.33;1.13;;;19.70;99.90;;;;;;5050620;28;20226;-86
2023/05/01 10:46:49;;;;;;;3.88;1.58;;;19.10;99.90;;;;;;5051099;28;20217;-85
2023/05/01 10:49:15;;;;;;;1.58;1.20;;;19.40;99.90;;;;;;5034202;28;20725;-86
2023/05/01 10:52:02;;;;;;;0.93;0.93;;;19.10;99.90;;;;;;5068173;28;20214;-85
2023/05/01 10:54:30;;;;;;;1.37;1.00;;;18.90;99.90;;;;;;5050985;28;20267;-85
2023/05/01 10:56:57;;;;;;;1.63;1.20;;;18.60;99.90;;;;;;5035798;28;20182;-85
2023/05/01 10:59:23;;;;;;;3.50;1.50;;;18.70;99.90;;;;;;5051442;28;20228;-85
2023/05/01 11:01:50;;;;;;;3.87;1.50;;;18.30;99.90;;;;;;5018741;28;20218;-86
2023/05/01 11:04:22;;;;;;;1.93;1.50;;;18.70;99.90;;;;;;5068287;28;20738;-85
2023/05/01 11:07:10;;;;;;;1.10;1.00;;;18.30;99.90;;;;;;5053245;28;20298;-87
2023/05/01 11:09:53;;;;;;;4.07;2.00;;;18.30;99.90;;;;;;5051960;28;20602;-85
2023/05/01 11:12:47;;;;;;;4.00;2.03;;;18.70;99.90;;;;;;5052569;28;20162;-86
2023/05/01 11:15:32;;;;;;;4.23;2.30;;;19.40;99.90;;;;;;5051403;28;20285;-86
2023/05/01 11:18:02;;;;;;;2.07;1.93;;;19.50;99.90;;;;;;5053330;28;20185;-86
2023/05/01 11:20:28;;;;;;;5.07;3.00;;;19.60;99.90;;;;;;5051211;28;20225;-85
2023/05/01 11:22:57;;;;;;;4.50;2.30;;;18.90;99.90;;;;;;5051242;28;20222;-84
2023/05/01 11:25:26;;;;;;;4.90;2.30;;;18.90;99.90;;;;;;5051411;28;20220;-85
2023/05/01 11:27:54;;;;;;;3.10;2.00;;;18.90;99.90;;;;;;5051179;28;20214;-85
2023/05/01 11:30:20;;;;;;;3.17;2.43;;;18.10;99.90;;;;;;5050595;28;20210;-84
2023/05/01 11:32:47;;;;;;;5.70;2.47;;;17.80;99.90;;;;;;5051580;28;20214;-85
2023/05/01 11:35:27;;;;;;;4.03;2.43;;;18.10;99.90;;;;;;5052319;28;20221;-84
2023/05/01 11:37:56;;;;;;;5.03;2.53;;;18.30;99.90;;;;;;5052271;28;20213;-84
2023/05/01 11:40:25;;;;;;;6.17;3.27;;;18.40;99.90;;;;;;5050811;28;20297;-85
2023/05/01 11:42:59;;;;;;;4.03;2.67;;;18.40;99.90;;;;;;5050806;28;20821;-85
2023/05/01 11:45:25;;;;;;;4.80;2.80;;;18.40;99.90;;;;;;5051557;28;20217;-84
2023/05/01 11:47:51;;;;;;;3.43;2.07;;;18.40;99.90;;;;;;5053134;28;20189;-84
2023/05/01 11:50:17;;;;;;;5.57;2.83;;;18.50;99.90;;;;;;5051911;28;20751;-85
2023/05/01 11:52:52;;;;;;;2.97;2.67;;;18.30;99.90;;;;;;5050629;28;20304;-84
2023/05/01 11:55:19;;;;;;;4.50;2.17;;;17.70;99.90;;;;;;5050692;28;20218;-85
2023/05/01 11:57:48;;;;;;;4.43;2.87;;;17.50;99.90;;;;;;5049479;28;20430;-85
2023/05/01 12:00:24;;;;;;;3.43;2.57;;;17.20;99.90;;;;;;5052414;28;20194;-85
2023/05/01 12:03:02;;;;;;;5.33;3.23;;;17.00;99.90;;;;;;5062382;28;20176;-84
2023/05/01 12:05:30;;;;;;;5.97;3.67;;;16.90;99.90;;;;;;5050793;28;20305;-85
2023/05/01 12:08:19;;;;;;;6.17;2.97;;;16.80;99.90;;;;;;5050870;28;20221;-85
2023/05/01 12:10:56;;;;;;;2.73;2.53;;;16.50;99.90;;;;;;5050451;28;20301;-84
2023/05/01 12:13:22;;;;;;;3.83;3.17;;;16.50;99.90;;;;;;5050359;28;20214;-85
2023/05/01 12:15:53;;;;;;;3.43;3.00;;;16.70;99.90;;;;;;5051464;28;20233;-86
2023/05/01 12:18:20;;;;;;;6.57;2.97;;;16.80;99.90;;;;;;5049524;28;20273;-87
2023/05/01 12:20:49;;;;;;;8.10;3.47;;;16.80;99.90;;;;;;5050939;28;20182;-86
2023/05/01 12:23:15;;;;;;;4.03;2.27;;;16.60;99.90;;;;;;5050904;28;20214;-83
2023/05/01 12:25:42;;;;;;;5.23;2.60;;;16.80;99.90;;;;;;5049286;28;20233;-87
2023/05/01 12:28:13;;;;;;;6.40;2.87;;;16.50;99.90;;;;;;5049918;28;20297;-85
2023/05/01 12:30:40;;;;;;;5.10;3.57;;;16.20;99.90;;;;;;5051387;28;20316;-85
2023/05/01 12:33:14;;;;;;;10.07;3.73;;;16.20;99.90;;;;;;5051499;28;20180;-85
2023/05/01 12:35:42;;;;;;;4.67;2.60;;;16.10;99.90;;;;;;5050428;28;20173;-85
2023/05/01 12:38:16;;;;;;;4.77;2.93;;;16.20;99.90;;;;;;5049799;28;20222;-86
2023/05/01 12:40:56;;;;;;;5.57;3.10;;;16.20;99.90;;;;;;5033155;28;20225;-84
2023/05/01 12:43:31;;;;;;;5.57;2.37;;;16.30;99.90;;;;;;5050175;28;20213;-85
2023/05/01 12:45:57;;;;;;;4.90;2.83;;;16.30;99.90;;;;;;5050374;28;20220;-85
2023/05/01 12:48:23;;;;;;;5.70;3.10;;;16.20;99.90;;;;;;5049272;28;20178;-85
2023/05/01 12:50:56;;;;;;;7.73;3.67;;;16.30;99.90;;;;;;5050935;28;20225;-85
2023/05/01 12:53:23;;;;;;;7.80;3.37;;;16.40;99.90;;;;;;5049579;28;20242;-86
2023/05/01 12:55:53;;;;;;;8.87;3.07;;;16.50;99.90;;;;;;5049227;28;20460;-84
2023/05/01 12:58:20;;;;;;;3.13;2.83;;;16.40;99.90;;;;;;5050500;28;20343;-84